METAR Data
IDs: Format: Raw Decoded Include TAF

Data at: 0209 UTC 25 Feb 2021

WIII 250200Z 33011KT 8000 SCT020 28/25 Q1008 NOSIG